createdAt,value
2022-10-24T00:01:32.503Z,9.82
2022-10-24T00:03:59.464Z,9.77
2022-10-24T00:06:32.525Z,9.13
2022-10-24T00:08:59.395Z,9.60
2022-10-24T00:11:34.505Z,9.82
2022-10-24T00:14:07.519Z,9.10
2022-10-24T00:16:34.410Z,8.90
2022-10-24T00:19:08.505Z,9.75
2022-10-24T00:21:41.632Z,9.65
2022-10-24T00:24:08.669Z,9.32
2022-10-24T00:26:42.514Z,8.57
2022-10-24T00:29:15.543Z,10.02
2022-10-24T00:31:48.505Z,9.70
2022-10-24T00:34:22.537Z,9.45
2022-10-24T00:36:49.384Z,9.60
2022-10-24T00:39:22.527Z,9.93
2022-10-24T00:41:55.543Z,9.80
2022-10-24T00:44:24.448Z,10.25
2022-10-24T00:47:23.524Z,11.13
2022-10-24T00:50:05.089Z,10.48
2022-10-24T00:52:43.548Z,9.63
2022-10-24T00:55:10.455Z,10.75
2022-10-24T00:57:46.810Z,9.30
2022-10-24T01:00:27.642Z,10.02
2022-10-24T01:02:54.520Z,10.35
2022-10-24T01:05:21.638Z,9.63
2022-10-24T01:08:21.579Z,10.30
2022-10-24T01:11:04.102Z,10.27
2022-10-24T01:14:09.554Z,10.10
2022-10-24T01:17:02.580Z,9.20
2022-10-24T01:19:56.602Z,9.93
2022-10-24T01:22:54.819Z,9.77
2022-10-24T01:25:37.559Z,9.85
2022-10-24T01:28:24.563Z,9.25
2022-10-24T01:31:23.654Z,8.85
2022-10-24T01:33:57.876Z,8.77
2022-10-24T01:36:43.550Z,9.48
2022-10-24T01:39:14.844Z,9.55
2022-10-24T01:41:41.846Z,10.00
2022-10-24T01:44:34.579Z,9.23
2022-10-24T01:47:16.118Z,9.50
2022-10-24T01:50:02.610Z,8.98
2022-10-24T01:52:38.564Z,8.73
2022-10-24T01:55:12.567Z,8.70
2022-10-24T01:57:39.570Z,9.38
2022-10-24T02:00:08.885Z,9.23
2022-10-24T02:02:48.673Z,9.88
2022-10-24T02:05:39.601Z,10.93
2022-10-24T02:08:10.661Z,10.60
2022-10-24T02:10:54.617Z,10.38
2022-10-24T02:13:54.044Z,10.15
2022-10-24T02:16:27.576Z,10.25
2022-10-24T02:19:01.588Z,10.50
2022-10-24T02:21:51.634Z,10.98
2022-10-24T02:24:32.202Z,10.65
2022-10-24T02:27:13.645Z,10.43
2022-10-24T02:29:50.593Z,10.85
2022-10-24T02:32:39.596Z,10.63
2022-10-24T02:35:13.622Z,11.57
2022-10-24T02:37:54.637Z,9.65
2022-10-24T02:40:28.620Z,10.05
2022-10-24T02:42:56.015Z,9.65
2022-10-24T02:45:29.602Z,9.70
2022-10-24T02:48:00.155Z,10.32
2022-10-24T02:50:33.636Z,9.95
2022-10-24T02:53:00.592Z,9.27
2022-10-24T02:55:33.602Z,9.38
2022-10-24T02:58:00.466Z,9.60
2022-10-24T03:00:27.407Z,9.65
2022-10-24T03:03:00.634Z,9.98
2022-10-24T03:05:33.610Z,9.93
2022-10-24T03:08:00.494Z,10.45
2022-10-24T03:10:27.391Z,10.50
2022-10-24T03:13:00.619Z,11.32
2022-10-24T03:15:27.526Z,10.63
2022-10-24T03:18:00.629Z,10.98
2022-10-24T03:20:33.643Z,10.02
2022-10-24T03:23:06.688Z,10.77
2022-10-24T03:25:33.774Z,10.48
2022-10-24T03:28:06.633Z,10.23
2022-10-24T03:30:33.494Z,10.70
2022-10-24T03:33:06.624Z,11.05
2022-10-24T03:35:33.486Z,11.55
2022-10-24T03:38:06.669Z,11.18
2022-10-24T03:40:34.702Z,11.10
2022-10-24T03:43:08.649Z,10.95
2022-10-24T03:45:35.535Z,16.83
2022-10-24T03:48:08.671Z,12.45
2022-10-24T03:50:35.499Z,11.07
2022-10-24T03:53:08.628Z,11.10
2022-10-24T03:55:35.842Z,11.40
2022-10-24T03:58:02.747Z,11.68
2022-10-24T04:00:35.685Z,11.05
2022-10-24T04:03:02.603Z,11.60
2022-10-24T04:05:35.695Z,11.88
2022-10-24T04:08:02.959Z,11.15
2022-10-24T04:10:36.697Z,11.98
2022-10-24T04:13:03.642Z,11.10
2022-10-24T04:15:36.671Z,11.00
2022-10-24T04:18:03.541Z,11.55
2022-10-24T04:20:36.669Z,11.40
2022-10-24T04:23:04.520Z,10.60
2022-10-24T04:25:31.644Z,11.05
2022-10-24T04:28:04.679Z,12.13
2022-10-24T04:30:37.705Z,11.25
2022-10-24T04:33:04.636Z,10.65
2022-10-24T04:35:31.540Z,11.90
2022-10-24T04:38:04.663Z,11.63
2022-10-24T04:40:31.597Z,12.20
2022-10-24T04:43:04.679Z,13.10
2022-10-24T04:45:31.565Z,12.63
2022-10-24T04:47:58.442Z,13.02
2022-10-24T04:50:31.669Z,12.48
2022-10-24T04:52:58.533Z,12.60
2022-10-24T04:55:31.750Z,13.70
2022-10-24T04:57:58.664Z,13.60
2022-10-24T05:00:31.721Z,12.32
2022-10-24T05:02:59.196Z,12.77
2022-10-24T05:05:26.261Z,12.50
2022-10-24T05:07:59.712Z,12.27
2022-10-24T05:10:32.722Z,11.80
2022-10-24T05:12:59.543Z,12.77
2022-10-24T05:15:32.709Z,12.80
2022-10-24T05:18:06.694Z,12.55
2022-10-24T05:20:33.594Z,13.07
2022-10-24T05:23:06.730Z,13.43
2022-10-24T05:25:33.607Z,13.10
2022-10-24T05:28:06.732Z,14.15
2022-10-24T05:30:33.562Z,13.77
2022-10-24T05:33:06.731Z,13.77
2022-10-24T05:35:39.702Z,14.68
2022-10-24T05:38:06.596Z,14.52
2022-10-24T05:40:39.735Z,14.95
2022-10-24T05:43:06.660Z,14.02
2022-10-24T05:45:39.778Z,14.93
2022-10-24T05:48:06.741Z,15.13
2022-10-24T05:50:39.715Z,16.27
2022-10-24T05:53:12.745Z,15.35
2022-10-24T05:55:39.635Z,15.85
2022-10-24T05:58:12.715Z,14.05
2022-10-24T06:00:39.578Z,14.02
2022-10-24T06:03:12.729Z,13.95
2022-10-24T06:05:39.665Z,14.48
2022-10-24T06:08:12.744Z,13.05
2022-10-24T06:10:39.625Z,12.40
2022-10-24T06:13:12.810Z,13.13
2022-10-24T06:15:42.597Z,13.00
2022-10-24T06:18:15.752Z,14.40
2022-10-24T06:20:42.632Z,14.20
2022-10-24T06:23:15.772Z,15.40
2022-10-24T06:25:42.811Z,14.20
2022-10-24T06:28:15.751Z,14.48
2022-10-24T06:30:42.621Z,14.82
2022-10-24T06:33:16.777Z,13.52
2022-10-24T06:35:43.667Z,14.25
2022-10-24T06:38:16.821Z,12.82
2022-10-24T06:40:49.830Z,14.05
2022-10-24T06:43:16.723Z,13.52
2022-10-24T06:45:49.883Z,14.15
2022-10-24T06:48:17.335Z,13.73
2022-10-24T06:50:50.782Z,13.73
2022-10-24T06:53:23.796Z,13.05
2022-10-24T06:55:56.805Z,14.07
2022-10-24T06:58:29.802Z,13.75
2022-10-24T07:00:56.730Z,14.40
2022-10-24T07:03:29.808Z,13.88
2022-10-24T07:05:56.617Z,14.07
2022-10-24T07:08:29.788Z,13.52
2022-10-24T07:11:03.665Z,14.55
2022-10-24T07:13:37.763Z,14.20
2022-10-24T07:16:05.603Z,14.30
2022-10-24T07:18:39.155Z,14.88
2022-10-24T07:21:09.806Z,14.15
2022-10-24T07:23:43.997Z,13.63
2022-10-24T07:26:13.604Z,14.80
2022-10-24T07:28:46.782Z,14.32
2022-10-24T07:31:16.953Z,13.88
2022-10-24T07:33:50.823Z,13.73
2022-10-24T07:36:19.053Z,15.57
2022-10-24T07:38:53.823Z,13.80
2022-10-24T07:41:20.806Z,15.38
2022-10-24T07:43:53.798Z,14.68
2022-10-24T07:46:22.277Z,16.10
2022-10-24T07:48:52.788Z,15.35
2022-10-24T07:51:26.837Z,14.48
2022-10-24T07:53:53.822Z,14.45
2022-10-24T07:56:26.884Z,15.27
2022-10-24T07:58:59.925Z,14.95
2022-10-24T08:01:27.830Z,15.95
2022-10-24T08:04:02.894Z,15.80
2022-10-24T08:06:45.260Z,19.10
2022-10-24T08:09:44.212Z,18.08
2022-10-24T08:12:15.699Z,19.42
2022-10-24T08:14:48.830Z,19.70
2022-10-24T08:17:24.293Z,18.20
2022-10-24T08:20:03.950Z,17.85
2022-10-24T08:22:38.463Z,17.40
2022-10-24T08:25:12.918Z,17.58
2022-10-24T08:30:14.855Z,19.63
2022-10-24T08:32:41.710Z,19.27
2022-10-24T08:35:15.957Z,22.15
2022-10-24T08:37:45.992Z,23.40
2022-10-24T08:40:29.405Z,24.33
2022-10-24T08:42:59.560Z,23.50
2022-10-24T08:45:45.941Z,25.20
2022-10-24T08:48:21.750Z,25.75
2022-10-24T16:50:13.096Z,29.38
2022-10-24T16:52:40.045Z,27.77
2022-10-24T16:55:07.184Z,28.52
2022-10-24T16:57:41.164Z,29.15
2022-10-24T17:00:16.072Z,29.15
2022-10-24T17:02:44.720Z,29.23
2022-10-24T17:05:15.192Z,27.80
2022-10-24T17:07:49.209Z,29.00
2022-10-24T17:10:19.436Z,28.65
2022-10-24T17:12:56.559Z,28.20
2022-10-24T17:15:23.645Z,26.67
2022-10-24T17:17:57.360Z,28.33
2022-10-24T17:20:24.372Z,28.38
2022-10-24T17:23:00.753Z,27.70
2022-10-24T17:25:30.125Z,31.42
2022-10-24T17:28:04.117Z,31.75
2022-10-24T17:30:31.180Z,31.45
2022-10-24T17:33:05.137Z,29.75
2022-10-24T17:35:32.027Z,30.63
2022-10-24T17:38:20.139Z,29.02
2022-10-24T17:40:55.091Z,27.52
2022-10-24T17:43:33.132Z,27.35
2022-10-24T17:46:07.147Z,27.67
2022-10-24T17:48:34.246Z,27.77
2022-10-24T17:51:08.118Z,27.83
2022-10-24T17:53:35.078Z,27.48
2022-10-24T17:56:09.250Z,25.30
2022-10-24T17:58:36.258Z,28.27
2022-10-24T18:01:10.275Z,27.27
2022-10-24T18:03:37.343Z,28.70
2022-10-24T18:06:06.397Z,26.13
2022-10-24T18:08:40.159Z,27.33
2022-10-24T18:11:07.326Z,27.77
2022-10-24T18:13:42.152Z,28.67
2022-10-24T18:16:11.302Z,27.23
2022-10-24T18:18:45.143Z,26.80
2022-10-24T18:23:52.188Z,26.73
2022-10-24T18:26:22.311Z,27.77
2022-10-24T18:28:57.317Z,27.95
2022-10-24T18:31:36.119Z,27.48
2022-10-24T18:34:06.276Z,26.27
2022-10-24T18:36:42.278Z,27.75
2022-10-24T18:39:16.257Z,27.42
2022-10-24T18:42:01.355Z,27.95
2022-10-24T18:44:40.173Z,28.48
2022-10-24T18:47:07.981Z,27.98
2022-10-24T18:49:47.335Z,28.20
2022-10-24T18:52:36.870Z,25.85
2022-10-24T18:55:28.265Z,26.67
2022-10-24T18:57:55.444Z,27.20
2022-10-24T19:00:34.247Z,28.15
2022-10-24T19:03:34.251Z,27.83
2022-10-24T19:06:31.243Z,27.25
2022-10-24T19:09:00.788Z,27.85
2022-10-24T19:11:34.213Z,26.92
2022-10-24T19:14:01.327Z,28.50
2022-10-24T19:16:35.327Z,28.95
2022-10-24T19:19:09.279Z,27.25
2022-10-24T19:21:45.339Z,27.88
2022-10-24T19:24:22.307Z,27.90
2022-10-24T19:26:49.214Z,26.52
2022-10-24T19:29:25.246Z,26.90
2022-10-24T19:31:52.168Z,28.23
2022-10-24T19:34:25.206Z,29.15
2022-10-24T19:36:52.117Z,28.20
2022-10-24T19:39:26.521Z,27.80
2022-10-24T19:41:55.047Z,28.75
2022-10-24T19:44:28.249Z,28.02
2022-10-24T19:46:55.248Z,26.77
2022-10-24T19:49:22.186Z,29.08
2022-10-24T19:51:57.200Z,28.35
2022-10-24T19:54:24.245Z,27.05
2022-10-24T19:57:00.228Z,28.50
2022-10-24T19:59:33.281Z,30.15
2022-10-24T20:02:00.798Z,29.55
2022-10-24T20:04:34.232Z,28.42
2022-10-24T20:07:07.254Z,31.33
2022-10-24T20:09:34.237Z,28.63
2022-10-24T20:12:01.167Z,29.45
2022-10-24T20:14:34.256Z,34.78
2022-10-24T20:17:01.207Z,32.75
2022-10-24T20:19:34.235Z,32.10
2022-10-24T20:22:02.464Z,32.00
2022-10-24T20:24:36.327Z,33.80
2022-10-24T20:27:03.663Z,32.10
2022-10-24T20:29:37.257Z,32.70
2022-10-24T20:32:04.460Z,34.45
2022-10-24T20:34:31.433Z,31.02
2022-10-24T20:37:05.264Z,30.60
2022-10-24T20:39:35.567Z,32.10
2022-10-24T20:42:09.281Z,33.72
2022-10-24T20:44:36.965Z,33.83
2022-10-24T20:47:10.662Z,32.30
2022-10-24T20:49:37.932Z,32.97
2022-10-24T20:52:14.269Z,32.03
2022-10-24T20:54:41.275Z,31.55
2022-10-24T20:57:14.330Z,32.85
2022-10-24T20:59:41.429Z,34.53
2022-10-24T21:02:09.079Z,33.63
2022-10-24T21:04:42.247Z,33.53
2022-10-24T21:07:10.702Z,37.20
2022-10-24T21:09:44.277Z,35.72
2022-10-24T21:12:11.214Z,33.67
2022-10-24T21:14:44.280Z,32.55
2022-10-24T21:17:11.436Z,32.38
2022-10-24T21:19:45.244Z,32.38
2022-10-24T21:22:18.388Z,33.75
2022-10-24T21:24:45.256Z,31.55
2022-10-24T21:27:12.227Z,32.25
2022-10-24T21:29:45.310Z,31.48
2022-10-24T21:32:12.238Z,32.08
2022-10-24T21:34:45.273Z,31.67
2022-10-24T21:37:12.227Z,32.72
2022-10-24T21:39:45.300Z,32.30
2022-10-24T21:42:12.270Z,32.00
2022-10-24T21:44:39.616Z,31.40
2022-10-24T21:47:13.273Z,31.52
2022-10-24T21:49:40.198Z,31.20
2022-10-24T21:52:13.294Z,31.58
2022-10-24T21:54:40.279Z,31.63
2022-10-24T21:57:13.338Z,32.78
2022-10-24T21:59:40.302Z,32.25
2022-10-24T22:02:13.467Z,31.58
2022-10-24T22:04:40.489Z,32.13
2022-10-24T22:07:14.373Z,29.45
2022-10-24T22:09:41.417Z,30.45
2022-10-24T22:12:15.319Z,32.33
2022-10-24T22:14:42.406Z,29.33
2022-10-24T22:17:16.345Z,30.35
2022-10-24T22:19:43.325Z,30.55
2022-10-24T22:22:10.385Z,30.58
2022-10-24T22:24:43.305Z,29.48
2022-10-24T22:27:10.232Z,29.63
2022-10-24T22:29:43.309Z,29.38
2022-10-24T22:32:12.718Z,29.52
2022-10-24T22:34:46.324Z,24.05
2022-10-24T22:37:28.190Z,22.92
2022-10-24T22:40:02.780Z,22.80
2022-10-24T22:42:29.860Z,24.15
2022-10-24T22:45:03.270Z,22.52
2022-10-24T22:48:03.060Z,24.25
2022-10-24T22:50:50.438Z,24.00
2022-10-24T22:53:21.062Z,24.38
2022-10-24T22:56:05.367Z,26.52
2022-10-24T22:58:32.771Z,27.80
2022-10-24T23:01:17.471Z,24.67
2022-10-24T23:04:15.383Z,24.75
2022-10-24T23:07:12.400Z,24.60
2022-10-24T23:09:39.760Z,23.77
2022-10-24T23:12:25.333Z,28.58
2022-10-24T23:14:52.849Z,28.25
2022-10-24T23:17:32.365Z,25.40
2022-10-24T23:20:00.291Z,26.40
2022-10-24T23:25:06.909Z,25.73
2022-10-24T23:27:45.572Z,24.58
2022-10-24T23:30:18.810Z,21.88
2022-10-24T23:32:53.336Z,22.00
2022-10-24T23:35:20.419Z,22.55
2022-10-24T23:37:56.370Z,22.23
2022-10-24T23:40:29.512Z,21.60
2022-10-24T23:43:03.404Z,20.83
2022-10-24T23:45:51.382Z,20.30
2022-10-24T23:48:36.374Z,17.95
2022-10-24T23:51:28.782Z,18.27
2022-10-24T23:54:02.376Z,17.20
2022-10-24T23:56:30.190Z,17.90
2022-10-24T23:59:03.388Z,18.17
